createdAt,value
2022-07-27T00:00:08.062Z,28.06
2022-07-27T00:06:39.170Z,28.07
2022-07-27T00:13:04.862Z,28.09
2022-07-27T00:19:33.418Z,28.02
2022-07-27T00:26:04.958Z,28.11
2022-07-27T00:32:31.982Z,28.03
2022-07-27T00:38:59.840Z,28.09
2022-07-27T00:45:28.961Z,28.09
2022-07-27T00:51:58.440Z,28.1
2022-07-27T00:58:26.010Z,28.11
2022-07-27T01:04:52.829Z,28.12
2022-07-27T01:11:25.145Z,28.14
2022-07-27T01:18:04.971Z,28.13
2022-07-27T01:24:34.974Z,28.13
2022-07-27T01:31:05.112Z,28.16
2022-07-27T01:37:31.463Z,28.13
2022-07-27T01:44:01.369Z,28.19
2022-07-27T01:50:24.570Z,28.13
2022-07-27T01:56:48.995Z,28.09
2022-07-27T02:03:18.364Z,28.11
2022-07-27T02:09:41.780Z,28.11
2022-07-27T02:16:14.688Z,28.15
2022-07-27T02:22:52.600Z,28.11
2022-07-27T02:29:19.103Z,28.09
2022-07-27T02:35:46.868Z,28.12
2022-07-27T02:42:12.463Z,28.14
2022-07-27T02:48:41.265Z,28.1
2022-07-27T02:55:09.427Z,28.1
2022-07-27T03:01:32.350Z,28.13
2022-07-27T03:07:53.037Z,28.12
2022-07-27T03:14:26.432Z,28.11
2022-07-27T03:20:56.601Z,28.13
2022-07-27T03:27:44.002Z,28.15
2022-07-27T03:34:12.080Z,28.15
2022-07-27T03:40:41.050Z,28.09
2022-07-27T03:47:16.088Z,28.11
2022-07-27T03:53:39.991Z,28.14
2022-07-27T04:00:11.129Z,28.1
2022-07-27T04:06:41.533Z,28.1
2022-07-27T04:13:15.065Z,27.71
2022-07-27T04:19:44.660Z,27.55
2022-07-27T04:26:10.180Z,27.49
2022-07-27T04:32:38.424Z,27.43
2022-07-27T04:39:09.516Z,27.4
2022-07-27T04:45:35.257Z,27.32
2022-07-27T04:52:04.826Z,27.29
2022-07-27T04:58:27.242Z,27.23
2022-07-27T05:05:00.041Z,27.24
2022-07-27T05:11:31.156Z,27.22
2022-07-27T05:17:55.088Z,27.14
2022-07-27T05:24:15.426Z,27.09
2022-07-27T05:30:42.319Z,27.06
2022-07-27T05:37:06.065Z,27.04
2022-07-27T05:43:38.149Z,27.04
2022-07-27T05:50:10.493Z,27.02
2022-07-27T05:56:35.397Z,27.02
2022-07-27T06:02:59.209Z,27.01
2022-07-27T06:09:27.243Z,27.03
2022-07-27T06:15:52.630Z,27.02
2022-07-27T06:22:17.911Z,27
2022-07-27T06:28:47.721Z,27.09
2022-07-27T06:35:14.222Z,27.03
2022-07-27T06:41:43.208Z,27.02
2022-07-27T06:48:08.099Z,26.94
2022-07-27T06:54:41.447Z,26.89
2022-07-27T07:01:16.359Z,26.84
2022-07-27T07:07:43.266Z,26.85
2022-07-27T07:14:17.446Z,26.91
2022-07-27T07:20:45.118Z,26.85
2022-07-27T07:27:07.155Z,26.81
2022-07-27T07:33:29.995Z,26.82
2022-07-27T07:39:51.242Z,26.74
2022-07-27T07:46:21.182Z,26.88
2022-07-27T07:52:56.142Z,26.97
2022-07-27T07:59:20.228Z,27.13
2022-07-27T08:05:56.256Z,27.24
2022-07-27T08:12:27.294Z,27.38
2022-07-27T08:18:56.099Z,27.38
2022-07-27T08:25:25.346Z,27.38
2022-07-27T08:31:56.265Z,27.43
2022-07-27T08:38:45.170Z,27.47
2022-07-27T08:45:20.352Z,27.47
2022-07-27T08:52:05.224Z,27.44
2022-07-27T08:58:45.288Z,27.44
2022-07-27T09:05:19.241Z,27.45
2022-07-27T09:12:14.208Z,27.42
2022-07-27T09:18:46.266Z,27.46
2022-07-27T09:26:01.991Z,27.51
2022-07-27T09:32:47.473Z,27.47
2022-07-27T09:39:41.314Z,27.56
2022-07-27T09:46:33.485Z,27.52
2022-07-27T09:53:43.528Z,27.59
2022-07-27T10:00:38.792Z,27.49
2022-07-27T10:07:16.794Z,27.5
2022-07-27T10:13:47.301Z,27.54
2022-07-27T10:20:25.474Z,27.53
2022-07-27T10:27:01.464Z,27.5
2022-07-27T10:33:53.251Z,27.5
2022-07-27T10:40:54.446Z,27.55
2022-07-27T10:47:42.207Z,27.56
2022-07-27T10:54:30.589Z,27.6
2022-07-27T11:01:24.739Z,27.63
2022-07-27T11:14:53.706Z,27.74
2022-07-27T11:21:49.341Z,27.71
2022-07-27T11:28:44.942Z,27.71
2022-07-27T11:35:19.936Z,27.71
2022-07-27T11:42:11.825Z,27.75
2022-07-27T11:49:10.441Z,27.88
2022-07-27T11:55:46.729Z,27.84
2022-07-27T12:02:31.733Z,27.96
2022-07-27T12:09:35.957Z,27.99
2022-07-27T12:16:35.884Z,28.03
2022-07-27T12:23:25.741Z,28.07
2022-07-27T12:30:07.347Z,28.06
2022-07-27T12:36:59.233Z,28
2022-07-27T12:43:33.228Z,28.01
2022-07-27T12:50:14.495Z,27.98
2022-07-27T12:56:59.410Z,27.96
2022-07-27T13:03:36.753Z,27.91
2022-07-27T13:10:22.842Z,27.93
2022-07-27T13:16:53.529Z,27.82
2022-07-27T13:23:22.604Z,27.8
2022-07-27T13:29:44.419Z,27.76
2022-07-27T13:36:26.847Z,27.78
2022-07-27T13:42:50.598Z,27.77
2022-07-27T13:49:17.804Z,27.74
2022-07-27T13:55:50.784Z,27.75
2022-07-27T14:02:15.986Z,27.75
2022-07-27T14:09:00.391Z,27.75
2022-07-27T14:15:51.056Z,27.81
2022-07-27T14:22:43.689Z,27.86
2022-07-27T14:29:09.507Z,27.9
2022-07-27T14:35:40.635Z,27.86
2022-07-27T14:42:16.408Z,27.85
2022-07-27T14:55:32.377Z,27.87
2022-07-27T15:02:02.745Z,27.87
2022-07-27T15:08:28.729Z,27.87
2022-07-27T15:14:54.171Z,27.86
2022-07-27T15:21:26.430Z,27.85
2022-07-27T15:27:51.558Z,27.88
2022-07-27T15:34:17.878Z,27.99
2022-07-27T15:40:41.910Z,28.01
2022-07-27T15:47:12.522Z,28.01
2022-07-27T15:53:43.710Z,28.04
2022-07-27T16:00:15.474Z,28.02
2022-07-27T16:06:43.494Z,28.04
2022-07-27T16:13:12.381Z,28.13
2022-07-27T16:19:39.512Z,28.1
2022-07-27T16:26:08.252Z,28.01
2022-07-27T16:32:34.953Z,28.05
2022-07-27T16:38:59.423Z,27.98
2022-07-27T16:45:20.376Z,27.98
2022-07-27T16:51:45.425Z,27.96
2022-07-27T16:58:13.678Z,27.93
2022-07-27T17:04:44.048Z,27.96
2022-07-27T17:11:16.802Z,27.91
2022-07-27T17:17:50.483Z,27.94
2022-07-27T17:24:19.540Z,27.95
2022-07-27T17:30:46.349Z,27.91
2022-07-27T17:37:18.496Z,27.88
2022-07-27T17:43:41.663Z,27.86
2022-07-27T17:50:04.816Z,27.93
2022-07-27T17:56:34.310Z,27.93
2022-07-27T18:03:04.521Z,27.93
2022-07-27T18:09:29.643Z,27.92
2022-07-27T18:15:59.507Z,27.91
2022-07-27T18:22:25.521Z,27.9
2022-07-27T18:28:47.799Z,27.91
2022-07-27T18:35:21.489Z,27.91
2022-07-27T18:41:50.280Z,27.92
2022-07-27T18:48:17.424Z,27.92
2022-07-27T18:54:44.559Z,27.92
2022-07-27T19:01:12.609Z,27.93
2022-07-27T19:07:46.910Z,27.97
2022-07-27T19:14:13.793Z,28.05
2022-07-27T19:20:40.942Z,28.09
2022-07-27T19:27:06.472Z,28.02
2022-07-27T19:33:31.586Z,27.91
2022-07-27T19:40:14.705Z,27.87
2022-07-27T19:46:43.656Z,27.89
2022-07-27T19:53:15.605Z,27.94
2022-07-27T19:59:55.241Z,28.01
2022-07-27T20:06:16.643Z,27.9
2022-07-27T20:12:49.935Z,27.84
2022-07-27T20:19:27.840Z,27.86
2022-07-27T20:25:52.068Z,27.86
2022-07-27T20:32:21.146Z,27.85
2022-07-27T20:38:53.707Z,27.81
2022-07-27T20:45:28.039Z,27.8
2022-07-27T20:51:54.603Z,27.77
2022-07-27T20:58:23.630Z,27.8
2022-07-27T21:04:49.488Z,27.78
2022-07-27T21:11:17.887Z,27.75
2022-07-27T21:17:43.800Z,27.77
2022-07-27T21:24:10.784Z,27.75
2022-07-27T21:30:41.046Z,27.73
2022-07-27T21:37:12.541Z,27.72
2022-07-27T21:43:39.518Z,27.73
2022-07-27T21:50:13.580Z,27.71
2022-07-27T21:56:45.808Z,27.68
2022-07-27T22:03:14.593Z,27.63
2022-07-27T22:09:38.121Z,27.63
2022-07-27T22:16:14.690Z,27.64
2022-07-27T22:22:38.383Z,27.6
2022-07-27T22:29:05.620Z,27.58
2022-07-27T22:35:34.639Z,27.56
2022-07-27T22:42:02.394Z,27.56
2022-07-27T22:48:25.618Z,27.53
2022-07-27T22:54:49.926Z,27.54
2022-07-27T23:01:22.305Z,27.63
2022-07-27T23:07:55.639Z,27.59
2022-07-27T23:14:21.700Z,27.55
2022-07-27T23:20:47.946Z,27.58
2022-07-27T23:27:11.711Z,27.58
2022-07-27T23:33:43.878Z,27.62
2022-07-27T23:40:13.984Z,27.66
2022-07-27T23:46:39.809Z,27.71
2022-07-27T23:53:13.872Z,27.64
2022-07-27T23:59:36.213Z,27.63
